createdAt,value
2018-03-04T00:00:14.835Z,946.57
2018-03-04T00:01:14.766Z,946.54
2018-03-04T00:02:14.707Z,946.55
2018-03-04T00:03:14.651Z,946.56
2018-03-04T00:04:14.579Z,946.60
2018-03-04T00:05:14.518Z,946.58
2018-03-04T00:06:14.456Z,946.59
2018-03-04T00:07:14.391Z,946.57
2018-03-04T00:08:14.330Z,946.58
2018-03-04T00:09:14.268Z,946.59
2018-03-04T00:10:14.202Z,946.60
2018-03-04T00:11:14.141Z,946.56
2018-03-04T00:12:14.076Z,946.59
2018-03-04T00:13:14.013Z,946.59
2018-03-04T00:14:13.951Z,946.58
2018-03-04T00:15:13.887Z,946.62
2018-03-04T00:16:13.829Z,946.59
2018-03-04T00:17:13.762Z,946.65
2018-03-04T00:18:13.703Z,946.68
2018-03-04T00:19:13.635Z,946.71
2018-03-04T00:20:13.573Z,946.73
2018-03-04T00:21:13.513Z,946.74
2018-03-04T00:22:13.455Z,946.74
2018-03-04T00:23:13.382Z,946.75
2018-03-04T00:24:13.319Z,946.74
2018-03-04T00:25:13.257Z,946.73
2018-03-04T00:26:13.195Z,946.75
2018-03-04T00:27:13.132Z,946.77
2018-03-04T00:28:13.068Z,946.73
2018-03-04T00:29:13.006Z,946.75
2018-03-04T00:30:12.944Z,946.76
2018-03-04T00:31:12.880Z,946.80
2018-03-04T00:32:12.821Z,946.77
2018-03-04T00:33:12.755Z,946.80
2018-03-04T00:34:12.692Z,946.77
2018-03-04T00:35:12.629Z,946.81
2018-03-04T00:36:12.570Z,946.79
2018-03-04T00:37:12.503Z,946.84
2018-03-04T00:38:12.439Z,946.82
2018-03-04T00:39:12.378Z,946.80
2018-03-04T00:40:12.316Z,946.85
2018-03-04T00:41:12.252Z,946.83
2018-03-04T00:42:12.182Z,946.87
2018-03-04T00:43:12.126Z,946.89
2018-03-04T00:44:12.062Z,946.87
2018-03-04T00:45:11.995Z,946.90
2018-03-04T00:46:11.934Z,946.89
2018-03-04T00:47:11.876Z,946.88
2018-03-04T00:48:11.808Z,946.92
2018-03-04T00:49:11.746Z,946.90
2018-03-04T00:50:11.683Z,946.96
2018-03-04T00:51:11.620Z,946.93
2018-03-04T00:52:11.556Z,946.93
2018-03-04T00:53:11.496Z,946.94
2018-03-04T00:54:11.433Z,946.98
2018-03-04T00:55:11.373Z,946.96
2018-03-04T00:56:11.305Z,947.02
2018-03-04T00:57:11.240Z,946.99
2018-03-04T00:58:11.178Z,947.05
2018-03-04T00:59:11.116Z,947.05
2018-03-04T01:00:11.052Z,947.07
2018-03-04T01:01:10.989Z,947.09
2018-03-04T01:02:10.929Z,947.06
2018-03-04T01:03:10.866Z,947.09
2018-03-04T01:04:10.797Z,947.13
2018-03-04T01:05:10.743Z,947.09
2018-03-04T01:06:10.674Z,947.15
2018-03-04T01:07:10.612Z,947.14
2018-03-04T01:08:10.548Z,947.17
2018-03-04T01:09:10.495Z,947.18
2018-03-04T01:10:10.422Z,947.17
2018-03-04T01:11:10.362Z,947.16
2018-03-04T01:12:10.296Z,947.15
2018-03-04T01:13:10.239Z,947.13
2018-03-04T01:14:10.172Z,947.10
2018-03-04T01:15:10.117Z,947.13
2018-03-04T01:16:10.043Z,947.18
2018-03-04T01:17:09.983Z,947.21
2018-03-04T01:18:09.919Z,947.27
2018-03-04T01:19:09.857Z,947.23
2018-03-04T01:20:09.803Z,947.20
2018-03-04T01:21:09.731Z,947.20
2018-03-04T01:22:09.667Z,947.21
2018-03-04T01:23:09.600Z,947.18
2018-03-04T01:24:09.560Z,947.21
2018-03-04T01:25:09.478Z,947.20
2018-03-04T01:26:09.412Z,947.18
2018-03-04T01:27:09.351Z,947.19
2018-03-04T01:28:09.294Z,947.22
2018-03-04T01:29:09.223Z,947.23
2018-03-04T01:30:09.164Z,947.23
2018-03-04T01:31:09.103Z,947.17
2018-03-04T01:32:09.036Z,947.19
2018-03-04T01:33:08.975Z,947.15
2018-03-04T01:34:08.911Z,947.16
2018-03-04T01:35:08.847Z,947.16
2018-03-04T01:36:08.784Z,947.19
2018-03-04T01:37:08.723Z,947.20
2018-03-04T01:38:08.660Z,947.21
2018-03-04T01:39:08.596Z,947.20
2018-03-04T01:40:08.534Z,947.22
2018-03-04T01:41:08.469Z,947.25
2018-03-04T01:42:08.412Z,947.25
2018-03-04T01:43:08.344Z,947.30
2018-03-04T01:44:08.322Z,947.31
2018-03-04T01:45:08.218Z,947.32
2018-03-04T01:46:08.166Z,947.28
2018-03-04T01:47:08.094Z,947.33
2018-03-04T01:48:08.030Z,947.30
2018-03-04T01:49:07.967Z,947.32
2018-03-04T01:50:07.921Z,947.34
2018-03-04T01:51:07.837Z,947.32
2018-03-04T01:52:07.777Z,947.34
2018-03-04T01:53:07.714Z,947.29
2018-03-04T01:54:07.651Z,947.35
2018-03-04T01:55:07.588Z,947.34
2018-03-04T01:56:07.524Z,947.32
2018-03-04T01:57:07.460Z,947.30
2018-03-04T01:58:07.399Z,947.37
2018-03-04T01:59:07.337Z,947.40
2018-03-04T02:00:07.272Z,947.35
2018-03-04T02:01:07.212Z,947.41
2018-03-04T02:02:07.146Z,947.43
2018-03-04T02:03:07.083Z,947.46
2018-03-04T02:04:07.029Z,947.47
2018-03-04T02:05:06.961Z,947.42
2018-03-04T02:06:06.892Z,947.45
2018-03-04T02:07:06.833Z,947.47
2018-03-04T02:08:06.770Z,947.47
2018-03-04T02:09:06.716Z,947.43
2018-03-04T02:10:06.639Z,947.38
2018-03-04T02:11:06.578Z,947.38
2018-03-04T02:12:06.516Z,947.40
2018-03-04T02:13:06.452Z,947.36
2018-03-04T02:14:06.390Z,947.39
2018-03-04T02:15:06.328Z,947.36
2018-03-04T02:16:06.263Z,947.36
2018-03-04T02:17:06.200Z,947.42
2018-03-04T02:18:06.142Z,947.42
2018-03-04T02:19:06.076Z,947.40
2018-03-04T02:20:06.014Z,947.41
2018-03-04T02:21:05.950Z,947.43
2018-03-04T02:22:05.891Z,947.43
2018-03-04T02:23:05.827Z,947.53
2018-03-04T02:24:05.759Z,947.51
2018-03-04T02:25:05.693Z,947.55
2018-03-04T02:26:05.631Z,947.50
2018-03-04T02:27:05.576Z,947.49
2018-03-04T02:28:05.512Z,947.52
2018-03-04T02:29:05.444Z,947.47
2018-03-04T02:30:05.446Z,947.45
2018-03-04T02:31:05.324Z,947.39
2018-03-04T02:32:05.255Z,947.38
2018-03-04T02:33:05.197Z,947.35
2018-03-04T02:34:05.133Z,947.40
2018-03-04T02:35:05.067Z,947.40
2018-03-04T02:36:05.002Z,947.39
2018-03-04T02:37:04.943Z,947.31
2018-03-04T02:38:04.878Z,947.32
2018-03-04T02:39:04.815Z,947.32
2018-03-04T02:40:04.756Z,947.29
2018-03-04T02:41:04.690Z,947.31
2018-03-04T02:42:04.628Z,947.29
2018-03-04T02:43:04.565Z,947.29
2018-03-04T02:44:04.501Z,947.29
2018-03-04T02:45:04.458Z,947.31
2018-03-04T02:46:04.382Z,947.37
2018-03-04T02:47:04.312Z,947.33
2018-03-04T02:48:04.249Z,947.28
2018-03-04T02:49:04.188Z,947.27
2018-03-04T02:50:04.134Z,947.28
2018-03-04T02:51:04.056Z,947.29
2018-03-04T02:52:03.994Z,947.27
2018-03-04T02:53:03.938Z,947.27
2018-03-04T02:54:03.870Z,947.27
2018-03-04T02:55:03.808Z,947.24
2018-03-04T02:56:03.745Z,947.24
2018-03-04T02:57:03.679Z,947.21
2018-03-04T02:58:03.616Z,947.18
2018-03-04T02:59:03.554Z,947.19
2018-03-04T03:00:03.491Z,947.20
2018-03-04T03:01:03.436Z,947.25
2018-03-04T03:02:03.365Z,947.27
2018-03-04T03:03:03.302Z,947.29
2018-03-04T03:04:03.243Z,947.31
2018-03-04T03:05:03.175Z,947.27
2018-03-04T03:06:03.118Z,947.31
2018-03-04T03:07:03.059Z,947.30
2018-03-04T03:08:02.993Z,947.30
2018-03-04T03:09:02.930Z,947.26
2018-03-04T03:10:02.868Z,947.29
2018-03-04T03:11:02.797Z,947.30
2018-03-04T03:12:02.740Z,947.28
2018-03-04T03:13:02.672Z,947.22
2018-03-04T03:14:02.611Z,947.19
2018-03-04T03:15:02.549Z,947.17
2018-03-04T03:16:02.483Z,947.16
2018-03-04T03:17:02.421Z,947.16
2018-03-04T03:18:02.356Z,947.22
2018-03-04T03:19:02.294Z,947.28
2018-03-04T03:20:02.232Z,947.25
2018-03-04T03:21:02.168Z,947.28
2018-03-04T03:22:02.106Z,947.26
2018-03-04T03:23:02.047Z,947.20
2018-03-04T03:24:01.981Z,947.28
2018-03-04T03:25:01.913Z,947.29
2018-03-04T03:26:01.856Z,947.31
2018-03-04T03:27:01.796Z,947.31
2018-03-04T03:28:01.727Z,947.31
2018-03-04T03:29:01.662Z,947.27
2018-03-04T03:30:01.603Z,947.30
2018-03-04T03:31:01.574Z,947.34
2018-03-04T03:32:01.473Z,947.29
2018-03-04T03:33:01.411Z,947.25
2018-03-04T03:34:01.349Z,947.23
2018-03-04T03:35:01.285Z,947.25
2018-03-04T03:36:01.222Z,947.21
2018-03-04T03:37:01.159Z,947.19
2018-03-04T03:38:01.095Z,947.18
2018-03-04T03:39:01.033Z,947.20
2018-03-04T03:40:00.970Z,947.17
2018-03-04T03:41:00.906Z,947.15
2018-03-04T03:42:00.844Z,947.14
2018-03-04T03:43:00.783Z,947.10
2018-03-04T03:44:00.720Z,947.11
2018-03-04T03:45:00.658Z,947.07
2018-03-04T03:46:00.593Z,947.08
2018-03-04T03:47:00.529Z,947.08
2018-03-04T03:48:00.476Z,947.14
2018-03-04T03:49:00.403Z,947.12
2018-03-04T03:50:00.344Z,947.18
2018-03-04T03:51:00.273Z,947.13
2018-03-04T03:52:00.218Z,947.17
2018-03-04T03:53:00.160Z,947.12
2018-03-04T03:54:00.088Z,947.15
2018-03-04T03:55:00.026Z,947.15
2018-03-04T03:55:59.962Z,947.15
2018-03-04T03:56:59.897Z,947.09
2018-03-04T03:57:59.836Z,947.22
2018-03-04T03:58:59.772Z,947.21
2018-03-04T03:59:59.708Z,947.23
2018-03-04T04:00:59.646Z,947.22
2018-03-04T04:01:59.585Z,947.25
2018-03-04T04:02:59.521Z,947.26
2018-03-04T04:03:59.461Z,947.24
2018-03-04T04:04:59.395Z,947.24
2018-03-04T04:05:59.331Z,947.26
2018-03-04T04:06:59.274Z,947.19
2018-03-04T04:07:59.207Z,947.19
2018-03-04T04:08:59.140Z,947.16
2018-03-04T04:09:59.075Z,947.17
2018-03-04T04:10:59.018Z,947.18
2018-03-04T04:11:58.958Z,947.16
2018-03-04T04:12:58.887Z,947.15
2018-03-04T04:13:58.826Z,947.14
2018-03-04T04:14:58.764Z,947.12
2018-03-04T04:15:58.698Z,947.16
2018-03-04T04:16:58.637Z,947.14
2018-03-04T04:17:58.574Z,947.08
2018-03-04T04:18:58.511Z,947.07
2018-03-04T04:19:58.448Z,947.09
2018-03-04T04:20:58.384Z,947.12
2018-03-04T04:21:58.321Z,947.11
2018-03-04T04:22:58.260Z,947.07
2018-03-04T04:23:58.195Z,947.10
2018-03-04T04:24:58.134Z,947.15
2018-03-04T04:25:58.073Z,947.14
2018-03-04T04:26:58.006Z,947.16
2018-03-04T04:27:57.947Z,947.12
2018-03-04T04:28:57.881Z,947.14
2018-03-04T04:29:57.818Z,947.10
2018-03-04T04:30:57.753Z,947.07
2018-03-04T04:31:57.686Z,947.08
2018-03-04T04:32:57.629Z,947.08
2018-03-04T04:33:57.564Z,947.10
2018-03-04T04:34:57.499Z,947.07
2018-03-04T04:35:57.440Z,947.08
2018-03-04T04:36:57.375Z,947.03
2018-03-04T04:37:57.313Z,947.07
2018-03-04T04:38:57.249Z,947.06
2018-03-04T04:39:57.185Z,947.06
2018-03-04T04:40:57.123Z,947.07
2018-03-04T04:41:57.063Z,947.09
2018-03-04T04:42:56.996Z,947.11
2018-03-04T04:43:56.940Z,947.08
2018-03-04T04:44:56.872Z,947.07
2018-03-04T04:45:56.812Z,947.08
2018-03-04T04:46:56.745Z,947.09
2018-03-04T04:47:56.676Z,947.07
2018-03-04T04:48:56.618Z,947.06
2018-03-04T04:49:56.558Z,947.07
2018-03-04T04:50:56.487Z,947.07
2018-03-04T04:51:56.426Z,947.07
2018-03-04T04:52:56.367Z,947.09
2018-03-04T04:53:56.330Z,947.01
2018-03-04T04:54:56.239Z,947.04
2018-03-04T04:55:56.176Z,947.01
2018-03-04T04:56:56.110Z,947.01
2018-03-04T04:57:56.048Z,947.01
2018-03-04T04:58:55.989Z,947.00
2018-03-04T04:59:55.922Z,946.98
2018-03-04T05:00:55.859Z,946.95
2018-03-04T05:01:55.797Z,946.96
2018-03-04T05:02:55.733Z,946.93
2018-03-04T05:03:55.673Z,946.91
2018-03-04T05:04:55.607Z,946.90
2018-03-04T05:05:55.544Z,946.87
2018-03-04T05:06:55.482Z,946.88
2018-03-04T05:07:55.429Z,946.93
2018-03-04T05:08:55.354Z,946.88
2018-03-04T05:09:55.286Z,946.91
2018-03-04T05:10:55.228Z,946.88
2018-03-04T05:11:55.173Z,946.88
2018-03-04T05:12:55.099Z,946.91
2018-03-04T05:13:55.039Z,946.94
2018-03-04T05:14:54.976Z,946.96
2018-03-04T05:15:54.911Z,946.95
2018-03-04T05:16:54.848Z,946.99
2018-03-04T05:17:54.787Z,946.98
2018-03-04T05:18:54.722Z,946.97
2018-03-04T05:19:54.659Z,947.02
2018-03-04T05:20:54.595Z,947.01
2018-03-04T05:21:54.533Z,947.03
2018-03-04T05:22:54.474Z,947.04
2018-03-04T05:23:54.407Z,947.05
2018-03-04T05:24:54.344Z,947.05
2018-03-04T05:25:54.275Z,947.03
2018-03-04T05:26:54.220Z,947.05
2018-03-04T05:27:54.152Z,947.06
2018-03-04T05:28:54.085Z,947.09
2018-03-04T05:29:54.027Z,947.06
2018-03-04T05:30:53.970Z,947.09
2018-03-04T05:31:53.900Z,947.08
2018-03-04T05:32:53.837Z,947.10
2018-03-04T05:33:53.773Z,947.07
2018-03-04T05:34:53.713Z,947.10
2018-03-04T05:35:53.647Z,947.08
2018-03-04T05:36:53.583Z,947.06
2018-03-04T05:37:53.521Z,947.04
2018-03-04T05:38:53.457Z,947.06
2018-03-04T05:39:53.393Z,947.07
2018-03-04T05:40:53.330Z,947.09
2018-03-04T05:41:53.274Z,947.09
2018-03-04T05:42:53.206Z,947.07
2018-03-04T05:43:53.140Z,947.02
2018-03-04T05:44:53.082Z,947.02
2018-03-04T05:45:53.019Z,947.05
2018-03-04T05:46:52.955Z,947.07
2018-03-04T05:47:52.886Z,947.09
2018-03-04T05:48:52.824Z,947.06
2018-03-04T05:49:52.761Z,947.04
2018-03-04T05:50:52.698Z,947.03
2018-03-04T05:51:52.633Z,947.03
2018-03-04T05:52:52.570Z,946.97
2018-03-04T05:53:52.508Z,947.02
2018-03-04T05:54:52.449Z,947.00
2018-03-04T05:55:52.381Z,947.06
2018-03-04T05:56:52.319Z,947.05
2018-03-04T05:57:52.258Z,947.05
2018-03-04T05:58:52.194Z,947.08
2018-03-04T05:59:52.129Z,947.11
2018-03-04T06:00:52.064Z,947.11
2018-03-04T06:01:52.008Z,947.09
2018-03-04T06:02:51.937Z,947.06
2018-03-04T06:03:51.871Z,947.08
2018-03-04T06:04:51.811Z,947.09
2018-03-04T06:05:51.749Z,947.08
2018-03-04T06:06:51.685Z,947.05
2018-03-04T06:07:51.620Z,947.07
2018-03-04T06:08:51.559Z,947.02
2018-03-04T06:09:51.495Z,947.00
2018-03-04T06:10:51.431Z,946.97
2018-03-04T06:11:51.369Z,946.97
2018-03-04T06:12:51.305Z,946.95
2018-03-04T06:13:51.243Z,946.99
2018-03-04T06:14:51.180Z,947.01
2018-03-04T06:15:51.115Z,947.05
2018-03-04T06:16:51.054Z,947.01
2018-03-04T06:17:50.989Z,947.07
2018-03-04T06:18:50.925Z,947.07
2018-03-04T06:19:50.859Z,947.07
2018-03-04T06:20:50.810Z,947.06
2018-03-04T06:21:50.743Z,947.11
2018-03-04T06:22:50.670Z,947.09
2018-03-04T06:23:50.608Z,947.14
2018-03-04T06:24:50.546Z,947.11
2018-03-04T06:25:50.477Z,947.08
2018-03-04T06:26:50.417Z,947.07
2018-03-04T06:27:50.353Z,947.10
2018-03-04T06:28:50.291Z,947.11
2018-03-04T06:29:50.229Z,947.13
2018-03-04T06:30:50.168Z,947.17
2018-03-04T06:31:50.101Z,947.17
2018-03-04T06:32:50.040Z,947.20
2018-03-04T06:33:49.979Z,947.21
2018-03-04T06:34:49.913Z,947.20
2018-03-04T06:35:49.848Z,947.18
2018-03-04T06:36:49.789Z,947.16
2018-03-04T06:37:49.719Z,947.17
2018-03-04T06:38:49.658Z,947.17
2018-03-04T06:39:49.596Z,947.15
2018-03-04T06:40:49.534Z,947.17
2018-03-04T06:41:49.466Z,947.13
2018-03-04T06:42:49.407Z,947.08
2018-03-04T06:43:49.343Z,947.14
2018-03-04T06:44:49.278Z,947.15
2018-03-04T06:45:49.216Z,947.22
2018-03-04T06:46:49.153Z,947.22
2018-03-04T06:47:49.088Z,947.23
2018-03-04T06:48:49.026Z,947.21
2018-03-04T06:49:48.963Z,947.17
2018-03-04T06:50:48.902Z,947.19
2018-03-04T06:51:48.837Z,947.14
2018-03-04T06:52:48.773Z,947.12
2018-03-04T06:53:48.710Z,947.13
2018-03-04T06:54:48.647Z,947.13
2018-03-04T06:55:48.583Z,947.13
2018-03-04T06:56:48.519Z,947.10
2018-03-04T06:57:48.458Z,947.10
2018-03-04T06:58:48.394Z,947.09
2018-03-04T06:59:48.341Z,947.10
2018-03-04T07:00:48.267Z,947.13
2018-03-04T07:01:48.206Z,947.11
2018-03-04T07:02:48.142Z,947.16
2018-03-04T07:03:48.081Z,947.17
2018-03-04T07:04:48.015Z,947.18
2018-03-04T07:05:47.952Z,947.23
2018-03-04T07:06:47.890Z,947.15
2018-03-04T07:07:47.826Z,947.17
2018-03-04T07:08:47.762Z,947.16
2018-03-04T07:09:47.699Z,947.18
2018-03-04T07:10:47.640Z,947.18
2018-03-04T07:11:47.572Z,947.16
2018-03-04T07:12:47.509Z,947.15
2018-03-04T07:13:47.454Z,947.14
2018-03-04T07:14:47.391Z,947.12
2018-03-04T07:15:47.319Z,947.19
2018-03-04T07:16:47.253Z,947.16
2018-03-04T07:17:47.196Z,947.23
2018-03-04T07:18:47.136Z,947.22
2018-03-04T07:19:47.064Z,947.21
2018-03-04T07:20:47.006Z,947.26
2018-03-04T07:21:46.941Z,947.30
2018-03-04T07:22:46.880Z,947.30
2018-03-04T07:23:46.811Z,947.33
2018-03-04T07:24:46.751Z,947.36
2018-03-04T07:25:46.689Z,947.38
2018-03-04T07:26:46.627Z,947.36
2018-03-04T07:27:46.566Z,947.33
2018-03-04T07:28:46.502Z,947.35
2018-03-04T07:29:46.439Z,947.34
2018-03-04T07:30:46.374Z,947.35
2018-03-04T07:31:46.310Z,947.25
2018-03-04T07:32:46.257Z,947.27
2018-03-04T07:33:46.185Z,947.27
2018-03-04T07:34:46.122Z,947.21
2018-03-04T07:35:46.058Z,947.23
2018-03-04T07:36:45.996Z,947.26
2018-03-04T07:37:45.937Z,947.26
2018-03-04T07:38:45.869Z,947.23
2018-03-04T07:39:45.806Z,947.25
2018-03-04T07:40:45.744Z,947.26
2018-03-04T07:41:45.680Z,947.24
2018-03-04T07:42:45.619Z,947.24
2018-03-04T07:43:45.554Z,947.25
2018-03-04T07:44:45.490Z,947.28
2018-03-04T07:45:45.430Z,947.25
2018-03-04T07:46:45.365Z,947.25
2018-03-04T07:47:45.306Z,947.22
2018-03-04T07:48:45.238Z,947.20
2018-03-04T07:49:45.177Z,947.14
2018-03-04T07:50:45.115Z,947.12
2018-03-04T07:51:45.056Z,947.08
2018-03-04T07:52:44.987Z,947.12
2018-03-04T07:53:44.926Z,947.11
2018-03-04T07:54:44.858Z,947.20
2018-03-04T07:55:44.804Z,947.14
2018-03-04T07:56:44.739Z,947.16
2018-03-04T07:57:44.672Z,947.19
2018-03-04T07:58:44.611Z,947.25
2018-03-04T07:59:44.560Z,947.29
2018-03-04T08:00:44.492Z,947.31
2018-03-04T08:01:44.422Z,947.35
2018-03-04T08:02:44.371Z,947.33
2018-03-04T08:03:44.294Z,947.38
2018-03-04T08:04:44.234Z,947.33
2018-03-04T08:05:44.170Z,947.32
2018-03-04T08:06:44.109Z,947.32
2018-03-04T08:07:44.044Z,947.29
2018-03-04T08:08:43.984Z,947.28
2018-03-04T08:09:43.919Z,947.27
2018-03-04T08:10:43.856Z,947.29
2018-03-04T08:11:43.793Z,947.25
2018-03-04T08:12:43.732Z,947.29
2018-03-04T08:13:43.672Z,947.23
2018-03-04T08:14:43.606Z,947.23
2018-03-04T08:15:43.547Z,947.24
2018-03-04T08:16:43.487Z,947.26
2018-03-04T08:17:43.416Z,947.27
2018-03-04T08:18:43.356Z,947.23
2018-03-04T08:19:43.285Z,947.19
2018-03-04T08:20:43.228Z,947.18
2018-03-04T08:21:43.168Z,947.15
2018-03-04T08:22:43.099Z,947.14
2018-03-04T08:23:43.040Z,947.14
2018-03-04T08:24:42.977Z,947.13
2018-03-04T08:25:42.910Z,947.13
2018-03-04T08:26:42.851Z,947.12
2018-03-04T08:27:42.787Z,947.12
2018-03-04T08:28:42.725Z,947.08
2018-03-04T08:29:42.667Z,947.05
2018-03-04T08:30:42.605Z,947.05
2018-03-04T08:31:42.537Z,946.99
2018-03-04T08:32:42.474Z,946.98
2018-03-04T08:33:42.412Z,946.99
2018-03-04T08:34:42.351Z,946.98
2018-03-04T08:35:42.287Z,947.03
2018-03-04T08:36:42.226Z,947.05
2018-03-04T08:37:42.161Z,947.08
2018-03-04T08:38:42.103Z,947.03
2018-03-04T08:39:42.035Z,947.02
2018-03-04T08:40:41.972Z,947.06
2018-03-04T08:41:41.919Z,947.01
2018-03-04T08:42:41.848Z,947.04
2018-03-04T08:43:41.783Z,947.06
2018-03-04T08:44:41.724Z,947.03
2018-03-04T08:45:41.666Z,947.04
2018-03-04T08:46:41.599Z,947.02
2018-03-04T08:47:41.532Z,947.03
2018-03-04T08:48:41.473Z,947.02
2018-03-04T08:49:41.413Z,946.98
2018-03-04T08:50:41.346Z,946.96
2018-03-04T08:51:41.285Z,946.96
2018-03-04T08:52:41.223Z,946.98
2018-03-04T08:53:41.163Z,946.98
2018-03-04T08:54:41.097Z,946.97
2018-03-04T08:55:41.037Z,946.98
2018-03-04T08:56:40.974Z,946.96
2018-03-04T08:57:40.911Z,947.01
2018-03-04T08:58:40.849Z,947.00
2018-03-04T08:59:40.786Z,947.08
2018-03-04T09:00:40.722Z,947.09
2018-03-04T09:01:40.660Z,947.10
2018-03-04T09:02:40.599Z,947.10
2018-03-04T09:03:40.537Z,947.04
2018-03-04T09:04:40.473Z,947.06
2018-03-04T09:05:40.412Z,947.06
2018-03-04T09:06:40.350Z,947.08
2018-03-04T09:07:40.289Z,947.04
2018-03-04T09:08:40.239Z,947.03
2018-03-04T09:09:40.166Z,946.99
2018-03-04T09:10:40.103Z,946.96
2018-03-04T09:11:40.037Z,946.99
2018-03-04T09:12:39.982Z,946.99
2018-03-04T09:13:39.921Z,946.95
2018-03-04T09:14:39.861Z,946.96
2018-03-04T09:15:39.786Z,946.92
2018-03-04T09:16:39.724Z,946.92
2018-03-04T09:17:39.665Z,946.93
2018-03-04T09:18:39.600Z,946.92
2018-03-04T09:19:39.544Z,946.94
2018-03-04T09:20:39.477Z,946.96
2018-03-04T09:21:39.410Z,946.95
2018-03-04T09:22:39.352Z,946.96
2018-03-04T09:23:39.294Z,946.95
2018-03-04T09:24:39.223Z,946.93
2018-03-04T09:25:39.186Z,946.95
2018-03-04T09:26:39.103Z,946.92
2018-03-04T09:27:39.040Z,946.94
2018-03-04T09:28:39.017Z,946.95
2018-03-04T09:29:38.914Z,946.92
2018-03-04T09:30:38.852Z,946.94
2018-03-04T09:31:38.790Z,946.89
2018-03-04T09:32:38.729Z,946.91
2018-03-04T09:33:38.665Z,946.91
2018-03-04T09:34:38.608Z,946.91
2018-03-04T09:35:38.539Z,946.93
2018-03-04T09:36:38.479Z,946.92
2018-03-04T09:37:38.418Z,946.90
2018-03-04T09:38:38.354Z,946.92
2018-03-04T09:39:38.292Z,946.92
2018-03-04T09:40:38.230Z,946.91
2018-03-04T09:41:38.169Z,946.93
2018-03-04T09:42:38.112Z,946.97
2018-03-04T09:43:38.046Z,946.93
2018-03-04T09:44:37.982Z,946.95
2018-03-04T09:45:37.921Z,946.97
2018-03-04T09:46:37.860Z,946.95
2018-03-04T09:47:37.797Z,946.99
2018-03-04T09:48:37.738Z,946.99
2018-03-04T09:49:37.677Z,947.03
2018-03-04T09:50:37.609Z,947.06
2018-03-04T09:51:37.548Z,947.02
2018-03-04T09:52:37.494Z,947.02
2018-03-04T09:53:37.425Z,946.99
2018-03-04T09:54:37.366Z,946.96
2018-03-04T09:55:37.297Z,946.94
2018-03-04T09:56:37.241Z,946.88
2018-03-04T09:57:37.183Z,946.85
2018-03-04T09:58:37.120Z,946.86
2018-03-04T09:59:37.058Z,946.83
2018-03-04T10:00:36.996Z,946.76
2018-03-04T10:01:36.931Z,946.76
2018-03-04T10:02:36.876Z,946.83
2018-03-04T10:03:36.809Z,946.82
2018-03-04T10:04:36.739Z,946.84
2018-03-04T10:05:36.689Z,946.84
2018-03-04T10:06:36.622Z,946.87
2018-03-04T10:07:36.583Z,946.89
2018-03-04T10:08:36.499Z,946.88
2018-03-04T10:09:36.437Z,946.88
2018-03-04T10:10:36.377Z,946.85
2018-03-04T10:11:36.312Z,946.92
2018-03-04T10:12:36.252Z,946.84
2018-03-04T10:13:36.187Z,946.89
2018-03-04T10:14:36.131Z,946.93
2018-03-04T10:15:36.073Z,946.98
2018-03-04T10:16:36.005Z,946.97
2018-03-04T10:17:35.953Z,946.99
2018-03-04T10:18:35.883Z,946.96
2018-03-04T10:19:35.825Z,946.95
2018-03-04T10:20:35.764Z,946.88
2018-03-04T10:21:35.702Z,946.94
2018-03-04T10:22:35.658Z,946.90
2018-03-04T10:23:35.585Z,946.94
2018-03-04T10:24:35.522Z,946.89
2018-03-04T10:25:35.468Z,946.88
2018-03-04T10:26:35.404Z,946.85
2018-03-04T10:27:35.343Z,946.78
2018-03-04T10:28:35.283Z,946.72
2018-03-04T10:29:35.225Z,946.72
2018-03-04T10:30:35.165Z,946.71
2018-03-04T10:31:35.106Z,946.72
2018-03-04T10:32:35.047Z,946.70
2018-03-04T10:33:34.987Z,946.65
2018-03-04T10:34:34.929Z,946.66
2018-03-04T10:35:34.874Z,946.62
2018-03-04T10:36:34.806Z,946.60
2018-03-04T10:37:34.751Z,946.58
2018-03-04T10:38:34.692Z,946.59
2018-03-04T10:39:34.632Z,946.60
2018-03-04T10:40:34.576Z,946.59
2018-03-04T10:41:34.525Z,946.60
2018-03-04T10:42:34.457Z,946.54
2018-03-04T10:43:34.399Z,946.46
2018-03-04T10:44:34.339Z,946.43
2018-03-04T10:45:34.277Z,946.41
2018-03-04T10:46:34.220Z,946.39
2018-03-04T10:47:34.161Z,946.37
2018-03-04T10:48:34.102Z,946.40
2018-03-04T10:49:34.048Z,946.41
2018-03-04T10:50:33.981Z,946.37
2018-03-04T10:51:33.925Z,946.35
2018-03-04T10:52:33.867Z,946.32
2018-03-04T10:53:33.802Z,946.28
2018-03-04T10:54:33.752Z,946.28
2018-03-04T10:55:33.695Z,946.27
2018-03-04T10:56:33.632Z,946.26
2018-03-04T10:57:33.571Z,946.24
2018-03-04T10:58:33.512Z,946.22
2018-03-04T10:59:33.452Z,946.20
2018-03-04T11:00:33.395Z,946.10
2018-03-04T11:01:33.335Z,946.10
2018-03-04T11:02:33.277Z,946.12
2018-03-04T11:03:33.227Z,945.98
2018-03-04T11:04:33.155Z,945.98
2018-03-04T11:05:33.098Z,945.97
2018-03-04T11:06:33.044Z,945.97
2018-03-04T11:07:32.979Z,945.97
2018-03-04T11:08:32.926Z,945.93
2018-03-04T11:09:32.866Z,945.91
2018-03-04T11:10:32.808Z,945.90
2018-03-04T11:11:32.778Z,945.91
2018-03-04T11:12:32.684Z,945.90
2018-03-04T11:13:32.624Z,945.90
2018-03-04T11:14:32.566Z,945.90
2018-03-04T11:15:32.509Z,945.90
2018-03-04T11:16:32.445Z,945.88
2018-03-04T11:17:32.385Z,945.88
2018-03-04T11:18:32.324Z,945.87
2018-03-04T11:19:32.264Z,945.86
2018-03-04T11:20:32.264Z,945.81
2018-03-04T11:21:32.144Z,945.81
2018-03-04T11:22:32.086Z,945.84
2018-03-04T11:23:32.025Z,945.84
2018-03-04T11:24:31.963Z,945.83
2018-03-04T11:25:31.905Z,945.76
2018-03-04T11:26:31.847Z,945.74
2018-03-04T11:27:31.782Z,945.76
2018-03-04T11:28:31.782Z,945.77
2018-03-04T11:29:31.668Z,945.72
2018-03-04T11:30:31.601Z,945.72
2018-03-04T11:31:31.549Z,945.67
2018-03-04T11:32:31.486Z,945.66
2018-03-04T11:33:31.430Z,945.69
2018-03-04T11:34:31.366Z,945.73
2018-03-04T11:35:31.304Z,945.70
2018-03-04T11:36:31.246Z,945.69
2018-03-04T11:37:31.185Z,945.68
2018-03-04T11:38:31.122Z,945.64
2018-03-04T11:39:31.062Z,945.63
2018-03-04T11:40:31.000Z,945.62
2018-03-04T11:41:30.946Z,945.62
2018-03-04T11:42:30.889Z,945.60
2018-03-04T11:43:30.820Z,945.63
2018-03-04T11:44:30.757Z,945.57
2018-03-04T11:45:30.698Z,945.57
2018-03-04T11:46:30.638Z,945.61
2018-03-04T11:47:30.575Z,945.63
2018-03-04T11:48:30.515Z,945.59
2018-03-04T11:49:30.454Z,945.59
2018-03-04T11:50:30.394Z,945.65
2018-03-04T11:51:30.330Z,945.67
2018-03-04T11:52:30.271Z,945.69
2018-03-04T11:53:30.212Z,945.70
2018-03-04T11:54:30.152Z,945.66
2018-03-04T11:55:30.088Z,945.69
2018-03-04T11:56:30.029Z,945.63
2018-03-04T11:57:29.973Z,945.60
2018-03-04T11:58:29.906Z,945.59
2018-03-04T11:59:29.844Z,945.60
2018-03-04T12:00:29.796Z,945.66
2018-03-04T12:01:29.723Z,945.69
2018-03-04T12:02:29.662Z,945.64
2018-03-04T12:03:29.601Z,945.67
2018-03-04T12:04:29.538Z,945.62
2018-03-04T12:05:29.478Z,945.64
2018-03-04T12:06:29.418Z,945.61
2018-03-04T12:07:29.354Z,945.61
2018-03-04T12:08:29.293Z,945.65
2018-03-04T12:09:29.258Z,945.68
2018-03-04T12:10:29.185Z,945.67
2018-03-04T12:11:29.108Z,945.68
2018-03-04T12:12:29.048Z,945.68
2018-03-04T12:13:28.989Z,945.64
2018-03-04T12:14:28.927Z,945.68
2018-03-04T12:15:28.865Z,945.66
2018-03-04T12:16:28.802Z,945.64
2018-03-04T12:17:28.741Z,945.57
2018-03-04T12:18:28.721Z,945.57
2018-03-04T12:19:28.618Z,945.53
2018-03-04T12:20:28.559Z,945.53
2018-03-04T12:21:28.496Z,945.50
2018-03-04T12:22:28.433Z,945.51
2018-03-04T12:23:28.372Z,945.54
2018-03-04T12:24:28.311Z,945.49
2018-03-04T12:25:28.266Z,945.50
2018-03-04T12:26:28.188Z,945.47
2018-03-04T12:27:28.128Z,945.42